createdAt,value
2019-01-21T00:00:55.378Z,18.40
2019-01-21T00:03:47.218Z,18.40
2019-01-21T00:06:39.045Z,18.40
2019-01-21T00:09:32.638Z,18.40
2019-01-21T00:12:30.931Z,18.40
2019-01-21T00:15:23.751Z,18.40
2019-01-21T00:18:22.012Z,18.40
2019-01-21T00:21:14.316Z,18.40
2019-01-21T00:24:05.890Z,18.40
2019-01-21T00:26:57.800Z,18.40
2019-01-21T00:29:51.479Z,18.40
2019-01-21T01:37:36.602Z,18.20
2019-01-21T01:40:29.483Z,18.20
2019-01-21T01:43:21.980Z,18.20
2019-01-21T01:46:15.845Z,18.20
2019-01-21T01:49:09.867Z,18.20
2019-01-21T01:52:03.628Z,18.20
2019-01-21T01:54:58.743Z,18.20
2019-01-21T01:57:52.303Z,18.20
2019-01-21T02:00:44.440Z,18.30
2019-01-21T02:03:36.243Z,18.30
2019-01-21T02:06:44.439Z,18.30
2019-01-21T02:09:37.540Z,18.30
2019-01-21T02:12:29.598Z,18.30
2019-01-21T02:15:21.583Z,18.30
2019-01-21T02:18:17.119Z,18.30
2019-01-21T02:21:09.846Z,18.30
2019-01-21T02:24:04.094Z,18.30
2019-01-21T02:27:15.754Z,18.30
2019-01-21T02:30:21.315Z,18.30
2019-01-21T02:33:31.277Z,18.30
2019-01-21T02:36:38.829Z,18.30
2019-01-21T02:39:48.175Z,18.40
2019-01-21T02:42:58.542Z,18.40
2019-01-21T02:46:17.083Z,18.40
2019-01-21T02:49:25.194Z,18.40
2019-01-21T02:52:27.669Z,18.40
2019-01-21T02:55:33.205Z,18.40
2019-01-21T02:58:43.021Z,18.40
2019-01-21T03:01:45.907Z,18.40
2019-01-21T03:04:50.936Z,18.40
2019-01-21T03:07:49.271Z,18.40
2019-01-21T03:11:04.982Z,18.40
2019-01-21T03:14:01.540Z,18.40
2019-01-21T03:17:09.793Z,18.40
2019-01-21T03:20:28.849Z,18.40
2019-01-21T03:23:52.222Z,18.50
2019-01-21T03:26:51.419Z,18.50
2019-01-21T03:29:59.779Z,18.50
2019-01-21T03:33:08.137Z,18.50
2019-01-21T03:36:43.053Z,18.50
2019-01-21T03:40:00.754Z,18.50
2019-01-21T03:43:10.272Z,18.50
2019-01-21T03:46:18.803Z,18.60
2019-01-21T03:49:32.162Z,18.60
2019-01-21T03:52:47.406Z,18.60
2019-01-21T03:55:41.545Z,18.60
2019-01-21T03:58:47.864Z,18.60
2019-01-21T04:01:55.716Z,18.60
2019-01-21T04:04:51.803Z,18.60
2019-01-21T04:08:24.096Z,18.60
2019-01-21T04:11:50.257Z,18.60
2019-01-21T04:15:20.353Z,18.60
2019-01-21T04:18:34.461Z,18.70
2019-01-21T04:25:13.687Z,18.70
2019-01-21T04:28:18.747Z,18.70
2019-01-21T04:31:29.742Z,18.70
2019-01-21T04:34:42.494Z,18.70
2019-01-21T04:38:05.346Z,18.70
2019-01-21T04:41:03.486Z,18.70
2019-01-21T04:44:14.385Z,18.70
2019-01-21T04:47:36.865Z,18.70
2019-01-21T04:50:38.214Z,18.70
2019-01-21T04:54:00.426Z,18.70
2019-01-21T04:57:01.947Z,18.70
2019-01-21T05:00:11.689Z,18.80
2019-01-21T05:03:22.413Z,18.70
2019-01-21T05:06:32.504Z,18.80
2019-01-21T05:46:35.665Z,18.90
2019-01-21T05:49:49.875Z,18.90
2019-01-21T05:53:14.348Z,18.90
2019-01-21T05:56:28.469Z,18.90
2019-01-21T05:59:53.706Z,18.90
2019-01-21T06:03:06.977Z,19.00
2019-01-21T06:09:39.839Z,19.00
2019-01-21T06:13:04.105Z,19.00
2019-01-21T06:16:15.001Z,19.00
2019-01-21T06:19:25.856Z,19.00
2019-01-21T06:22:29.274Z,19.00
2019-01-21T06:25:45.575Z,19.00
2019-01-21T06:28:54.564Z,19.00
2019-01-21T06:32:16.897Z,19.00
2019-01-21T06:35:28.856Z,19.00
2019-01-21T06:38:45.126Z,19.00
2019-01-21T06:42:20.164Z,19.00
2019-01-21T06:45:37.735Z,19.00
2019-01-21T06:48:43.191Z,19.00
2019-01-21T06:51:57.073Z,19.00
2019-01-21T06:55:11.426Z,19.10
2019-01-21T06:58:25.429Z,19.10
2019-01-21T07:01:26.530Z,19.10
2019-01-21T07:04:35.668Z,19.10
2019-01-21T07:07:48.069Z,19.00
2019-01-21T07:10:52.842Z,19.00
2019-01-21T07:14:03.984Z,19.00
2019-01-21T07:17:19.114Z,19.00
2019-01-21T07:24:10.365Z,19.00
2019-01-21T07:34:34.283Z,19.00
2019-01-21T07:41:17.431Z,19.00
2019-01-21T07:44:24.540Z,19.00
2019-01-21T07:51:29.807Z,19.00
2019-01-21T07:58:28.590Z,19.00
2019-01-21T08:05:26.507Z,18.90
2019-01-21T08:16:17.016Z,18.90
2019-01-21T08:19:26.300Z,18.90
2019-01-21T08:22:42.673Z,18.90
2019-01-21T08:26:00.176Z,18.90
2019-01-21T08:29:11.134Z,18.90
2019-01-21T08:32:21.847Z,18.90
2019-01-21T08:35:20.380Z,18.90
2019-01-21T08:38:44.769Z,18.90
2019-01-21T08:41:44.859Z,18.90
2019-01-21T08:44:59.256Z,18.90
2019-01-21T08:48:19.200Z,18.90
2019-01-21T08:51:28.452Z,18.90
2019-01-21T08:54:42.261Z,18.90
2019-01-21T08:57:53.310Z,18.90
2019-01-21T09:01:07.531Z,19.00
2019-01-21T09:04:16.413Z,19.10
2019-01-21T09:07:26.422Z,19.10
2019-01-21T09:10:40.073Z,19.10
2019-01-21T09:13:53.722Z,19.10
2019-01-21T09:17:09.852Z,19.10
2019-01-21T09:20:13.001Z,19.10
2019-01-21T09:23:23.611Z,19.20
2019-01-21T09:26:41.055Z,19.20
2019-01-21T09:29:40.011Z,19.20
2019-01-21T09:32:54.294Z,19.20
2019-01-21T09:36:04.527Z,19.20
2019-01-21T09:39:21.198Z,19.20
2019-01-21T09:42:20.999Z,19.20
2019-01-21T09:45:29.808Z,19.30
2019-01-21T09:48:20.037Z,19.30
2019-01-21T09:51:14.189Z,19.30
2019-01-21T09:54:12.292Z,19.30
2019-01-21T09:57:05.113Z,19.30
2019-01-21T10:00:02.328Z,19.30
2019-01-21T10:02:58.217Z,19.30
2019-01-21T10:05:50.136Z,19.30
2019-01-21T10:08:58.764Z,19.30
2019-01-21T10:12:08.908Z,19.30
2019-01-21T10:15:12.411Z,19.30
2019-01-21T10:18:20.454Z,19.30
2019-01-21T10:21:28.955Z,19.30
2019-01-21T10:24:40.842Z,19.30
2019-01-21T10:27:57.256Z,19.30
2019-01-21T10:31:22.153Z,19.40
2019-01-21T10:34:41.768Z,19.40
2019-01-21T10:37:50.695Z,19.40
2019-01-21T10:41:03.843Z,19.40
2019-01-21T10:44:17.633Z,19.40
2019-01-21T10:47:16.567Z,19.40
2019-01-21T10:50:48.546Z,19.60
2019-01-21T10:54:08.035Z,19.70
2019-01-21T10:57:15.517Z,19.70
2019-01-21T11:00:17.382Z,19.80
2019-01-21T11:03:48.046Z,19.80
2019-01-21T11:07:21.119Z,19.70
2019-01-21T11:10:38.960Z,19.60
2019-01-21T11:13:48.154Z,19.60
2019-01-21T11:17:14.378Z,19.60
2019-01-21T11:20:36.965Z,19.60
2019-01-21T11:23:58.162Z,19.60
2019-01-21T11:27:21.448Z,19.60
2019-01-21T11:30:43.979Z,19.60
2019-01-21T11:34:20.550Z,19.50
2019-01-21T11:37:38.148Z,19.60
2019-01-21T11:40:59.533Z,19.60
2019-01-21T11:44:14.531Z,19.50
2019-01-21T11:47:38.859Z,19.50
2019-01-21T11:50:54.747Z,19.50
2019-01-21T11:54:04.235Z,19.50
2019-01-21T11:57:23.444Z,19.50
2019-01-21T13:04:38.989Z,19.40
2019-01-21T13:07:54.477Z,19.40
2019-01-21T13:11:01.772Z,19.40
2019-01-21T13:14:10.679Z,19.40
2019-01-21T13:17:19.027Z,19.40
2019-01-21T13:20:30.716Z,19.40
2019-01-21T13:23:34.092Z,19.40
2019-01-21T13:26:45.719Z,19.40
2019-01-21T13:29:54.661Z,19.40
2019-01-21T13:33:13.926Z,19.40
2019-01-21T13:36:32.685Z,19.30
2019-01-21T13:39:39.473Z,19.30
2019-01-21T13:42:57.161Z,19.30
2019-01-21T13:46:20.346Z,19.30
2019-01-21T13:49:22.992Z,19.30
2019-01-21T13:52:34.376Z,19.30
2019-01-21T13:55:42.534Z,19.30
2019-01-21T13:58:55.013Z,19.30
2019-01-21T14:02:01.904Z,19.30
2019-01-21T14:05:10.745Z,19.30
2019-01-21T14:08:22.508Z,19.30
2019-01-21T14:11:25.188Z,19.30
2019-01-21T14:14:34.135Z,19.30
2019-01-21T14:17:43.850Z,19.30
2019-01-21T14:20:46.201Z,19.30
2019-01-21T14:23:58.456Z,19.30
2019-01-21T14:27:14.113Z,19.30
2019-01-21T14:30:18.904Z,19.30
2019-01-21T14:33:19.191Z,19.30
2019-01-21T14:36:22.585Z,19.30
2019-01-21T14:39:40.441Z,19.30
2019-01-21T14:42:38.340Z,19.30
2019-01-21T14:45:44.697Z,19.30
2019-01-21T14:49:13.756Z,19.30
2019-01-21T14:52:28.094Z,19.30
2019-01-21T15:03:14.242Z,19.30
2019-01-21T15:06:21.157Z,19.30
2019-01-21T15:09:16.245Z,19.30
2019-01-21T15:12:37.788Z,19.30
2019-01-21T15:16:16.810Z,19.30
2019-01-21T15:19:16.986Z,19.30
2019-01-21T15:22:25.762Z,19.30
2019-01-21T15:25:31.113Z,19.30
2019-01-21T15:28:44.651Z,19.30
2019-01-21T15:31:56.846Z,19.30
2019-01-21T15:35:20.638Z,19.30
2019-01-21T15:38:35.286Z,19.30
2019-01-21T15:41:33.679Z,19.30
2019-01-21T15:44:29.904Z,19.30
2019-01-21T15:47:42.898Z,19.30
2019-01-21T15:50:48.462Z,19.30
2019-01-21T15:53:45.415Z,19.30
2019-01-21T15:57:01.496Z,19.30
2019-01-21T16:00:20.257Z,19.30
2019-01-21T16:03:22.247Z,19.30
2019-01-21T16:06:41.443Z,19.30
2019-01-21T16:09:46.179Z,19.30
2019-01-21T16:13:01.574Z,19.30
2019-01-21T16:16:22.371Z,19.30
2019-01-21T16:19:16.576Z,19.30
2019-01-21T16:22:26.504Z,19.30
2019-01-21T16:25:30.450Z,19.30
2019-01-21T16:28:28.952Z,19.20
2019-01-21T16:31:35.452Z,19.20
2019-01-21T16:34:45.387Z,19.20
2019-01-21T16:37:46.738Z,19.20
2019-01-21T16:41:05.421Z,19.20
2019-01-21T16:44:25.723Z,19.20
2019-01-21T16:47:18.648Z,19.20
2019-01-21T16:50:14.649Z,19.20
2019-01-21T16:53:12.909Z,19.20
2019-01-21T16:56:12.823Z,19.20
2019-01-21T16:59:22.522Z,19.20
2019-01-21T17:02:15.061Z,19.20
2019-01-21T17:05:28.160Z,19.20
2019-01-21T17:08:21.033Z,19.20
2019-01-21T17:11:13.842Z,19.20
2019-01-21T17:14:18.688Z,19.20
2019-01-21T17:17:21.402Z,19.20
2019-01-21T17:20:16.972Z,19.20
2019-01-21T17:23:30.519Z,19.20
2019-01-21T17:27:00.984Z,19.20
2019-01-21T17:29:52.819Z,19.20
2019-01-21T17:32:48.402Z,19.30
2019-01-21T17:35:42.531Z,19.20
2019-01-21T17:38:37.303Z,19.30
2019-01-21T17:41:29.882Z,19.20
2019-01-21T17:44:23.065Z,19.20
2019-01-21T17:47:21.026Z,19.20
2019-01-21T17:50:23.240Z,19.30
2019-01-21T17:53:21.468Z,19.30
2019-01-21T17:56:17.930Z,19.30
2019-01-21T17:59:28.045Z,19.30
2019-01-21T18:02:23.349Z,19.20
2019-01-21T18:05:17.706Z,19.20
2019-01-21T18:08:08.693Z,19.20
2019-01-21T18:11:01.601Z,19.30
2019-01-21T18:13:53.835Z,19.20
2019-01-21T18:16:46.783Z,19.30
2019-01-21T18:19:39.050Z,19.30
2019-01-21T18:22:31.591Z,19.20
2019-01-21T18:25:24.323Z,19.30
2019-01-21T18:28:17.117Z,19.30
2019-01-21T18:31:09.532Z,19.20
2019-01-21T18:34:03.772Z,19.20
2019-01-21T18:36:56.407Z,19.20
2019-01-21T18:39:49.367Z,19.30
2019-01-21T18:42:41.874Z,19.30
2019-01-21T18:45:34.294Z,19.30
2019-01-21T18:48:29.333Z,19.30
2019-01-21T18:51:25.962Z,19.30
2019-01-21T18:54:17.746Z,19.30
2019-01-21T18:57:13.350Z,19.30
2019-01-21T19:00:06.555Z,19.30
2019-01-21T19:02:59.404Z,19.30
2019-01-21T19:05:51.848Z,19.30
2019-01-21T19:08:46.875Z,19.30
2019-01-21T19:11:41.306Z,19.30
2019-01-21T19:14:33.639Z,19.30
2019-01-21T19:17:26.801Z,19.30
2019-01-21T19:20:29.828Z,19.30
2019-01-21T19:23:22.374Z,19.30
2019-01-21T19:26:15.765Z,19.30
2019-01-21T19:29:10.094Z,19.30
2019-01-21T19:32:02.905Z,19.30
2019-01-21T19:38:19.084Z,19.30
2019-01-21T19:41:14.036Z,19.30
2019-01-21T19:44:08.822Z,19.30
2019-01-21T19:47:01.085Z,19.30
2019-01-21T19:49:53.179Z,19.30
2019-01-21T19:52:49.070Z,19.30
2019-01-21T19:55:43.753Z,19.30
2019-01-21T19:58:39.363Z,19.30
2019-01-21T20:01:33.185Z,19.30
2019-01-21T20:04:45.631Z,19.30
2019-01-21T20:08:17.488Z,19.30
2019-01-21T20:11:14.743Z,19.30
2019-01-21T20:14:13.426Z,19.30
2019-01-21T20:17:06.092Z,19.30
2019-01-21T20:20:12.920Z,19.30
2019-01-21T20:23:08.193Z,19.30
2019-01-21T20:26:03.857Z,19.30
2019-01-21T20:28:57.262Z,19.30
2019-01-21T20:31:53.440Z,19.30
2019-01-21T20:34:54.936Z,19.30
2019-01-21T20:37:52.322Z,19.30
2019-01-21T20:41:17.481Z,19.30
2019-01-21T20:51:46.908Z,19.30
2019-01-21T20:54:41.126Z,19.30
2019-01-21T20:57:42.055Z,19.30
2019-01-21T21:00:34.063Z,19.30
2019-01-21T21:03:28.809Z,19.30
2019-01-21T21:06:21.095Z,19.30
2019-01-21T21:09:31.221Z,19.30
2019-01-21T21:12:36.419Z,19.30
2019-01-21T21:19:09.448Z,19.30
2019-01-21T21:22:02.334Z,19.30
2019-01-21T21:24:56.093Z,19.30
2019-01-21T21:27:54.767Z,19.30
2019-01-21T21:30:47.642Z,19.30
2019-01-21T21:33:56.163Z,19.30
2019-01-21T21:36:49.240Z,19.30
2019-01-21T21:39:44.174Z,19.30
2019-01-21T21:43:09.340Z,19.30
2019-01-21T21:46:11.701Z,19.30
2019-01-21T21:49:26.689Z,19.30
2019-01-21T21:52:18.895Z,19.30
2019-01-21T21:55:17.947Z,19.30
2019-01-21T21:58:10.910Z,19.30
2019-01-21T22:01:02.754Z,19.30
2019-01-21T22:03:54.676Z,19.30
2019-01-21T22:06:46.610Z,19.30
2019-01-21T22:09:39.349Z,19.30
2019-01-21T22:12:32.335Z,19.30
2019-01-21T22:15:37.736Z,19.30
2019-01-21T22:18:29.738Z,19.30
2019-01-21T22:21:23.066Z,19.30
2019-01-21T22:24:24.410Z,19.30
2019-01-21T22:27:17.706Z,19.30
2019-01-21T22:30:10.787Z,19.30
2019-01-21T22:33:19.688Z,19.30
2019-01-21T22:36:26.610Z,19.30
2019-01-21T22:39:18.954Z,19.30
2019-01-21T22:42:10.802Z,19.30
2019-01-21T22:45:09.899Z,19.30
2019-01-21T22:48:09.128Z,19.30
2019-01-21T22:51:35.939Z,19.30
2019-01-21T22:54:28.995Z,19.30
2019-01-21T22:57:21.183Z,19.30
2019-01-21T23:00:45.411Z,19.30
2019-01-21T23:03:37.867Z,19.30
2019-01-21T23:06:33.524Z,19.30
2019-01-21T23:09:38.910Z,19.30
2019-01-21T23:12:32.897Z,19.20
2019-01-21T23:15:26.671Z,19.30
2019-01-21T23:18:18.791Z,19.30
2019-01-21T23:21:11.036Z,19.20
2019-01-21T23:24:03.461Z,19.20
2019-01-21T23:26:56.325Z,19.20
2019-01-21T23:29:50.908Z,19.20
2019-01-21T23:32:42.883Z,19.20
2019-01-21T23:35:34.932Z,19.20
2019-01-21T23:38:28.166Z,19.20
2019-01-21T23:41:19.959Z,19.20
2019-01-21T23:44:13.023Z,19.20
2019-01-21T23:47:42.684Z,19.20
2019-01-21T23:51:00.683Z,19.20
2019-01-21T23:54:13.843Z,19.20
2019-01-21T23:57:29.592Z,19.20
